Time;durP1;ratioP1;P1;durP2;ratioP2;P2;SDS_P1;SDS_P2;PMS_P1;PMS_P2;Temp;Humidity;BMP_temperature;BMP_pressure;BME280_temperature;BME280_humidity;BME280_pressure;Samples;Min_cycle;Max_cycle;Signal;HPM_P1;HPM_P2
2023/06/05 00:01:02;;;;;;;20.90;16.95;;;22.80;99.90;;;;;;5094030;28;20043;-74
2023/06/05 00:04:06;;;;;;;21.70;18.20;;;22.80;99.90;;;;;;5094171;28;20042;-75
2023/06/05 00:07:10;;;;;;;22.48;18.30;;;22.90;99.90;;;;;;5081453;28;20060;-75
2023/06/05 00:10:14;;;;;;;26.42;20.30;;;22.90;99.90;;;;;;5094005;28;20043;-75
2023/06/05 00:13:18;;;;;;;23.38;18.95;;;22.80;99.90;;;;;;5093973;28;20047;-75
2023/06/05 00:16:23;;;;;;;25.48;19.23;;;22.70;99.90;;;;;;5081395;28;20039;-75
2023/06/05 00:19:27;;;;;;;21.65;19.35;;;22.60;99.90;;;;;;5070105;28;20031;-74
2023/06/05 00:22:33;;;;;;;26.02;18.98;;;22.60;99.90;;;;;;5093805;28;20047;-75
2023/06/05 00:25:37;;;;;;;24.35;19.20;;;22.50;99.90;;;;;;5081670;28;20043;-75
2023/06/05 00:28:41;;;;;;;25.88;20.55;;;22.50;99.90;;;;;;5081370;28;20035;-75
2023/06/05 00:31:46;;;;;;;27.88;22.98;;;22.30;99.90;;;;;;5093722;28;20051;-75
2023/06/05 00:34:50;;;;;;;29.38;21.92;;;22.20;99.90;;;;;;5093350;28;20055;-74
2023/06/05 00:37:54;;;;;;;25.80;21.40;;;22.10;99.90;;;;;;5080806;28;20035;-75
2023/06/05 00:40:58;;;;;;;25.42;21.35;;;22.10;99.90;;;;;;5093377;28;20379;-75
2023/06/05 00:44:02;;;;;;;28.77;22.55;;;22.10;99.90;;;;;;5093655;28;20063;-74
2023/06/05 00:47:06;;;;;;;27.30;23.00;;;22.10;99.90;;;;;;5093462;28;20043;-75
2023/06/05 00:50:14;;;;;;;29.45;24.00;;;22.20;99.90;;;;;;5093220;28;20356;-75
2023/06/05 00:53:19;;;;;;;28.20;22.55;;;22.20;99.90;;;;;;5080545;28;20400;-74
2023/06/05 00:56:23;;;;;;;26.98;21.40;;;22.30;99.90;;;;;;5093308;28;20047;-74
2023/06/05 00:59:31;;;;;;;31.58;21.23;;;22.30;99.90;;;;;;5093033;28;20106;-75
2023/06/05 01:02:37;;;;;;;27.75;21.60;;;22.20;99.90;;;;;;5093145;28;20059;-74
2023/06/05 01:05:43;;;;;;;25.33;20.27;;;22.20;99.90;;;;;;5080163;28;20047;-74
2023/06/05 01:08:48;;;;;;;27.30;20.98;;;22.10;99.90;;;;;;5080524;28;20408;-74
2023/06/05 01:12:11;;;;;;;28.08;21.90;;;22.10;99.90;;;;;;5080645;28;20502;-74
2023/06/05 01:15:18;;;;;;;21.33;18.90;;;22.10;99.90;;;;;;5080268;28;20059;-74
2023/06/05 01:18:24;;;;;;;24.52;19.77;;;22.20;99.90;;;;;;5080357;28;20043;-74
2023/06/05 01:21:32;;;;;;;22.33;19.30;;;22.20;99.90;;;;;;5092542;28;20047;-74
2023/06/05 01:24:36;;;;;;;24.48;20.35;;;22.10;99.90;;;;;;5068554;28;20035;-74
2023/06/05 01:28:03;;;;;;;24.83;20.27;;;22.10;99.90;;;;;;5080197;28;20047;-75
2023/06/05 01:31:15;;;;;;;26.10;20.23;;;22.10;99.90;;;;;;5080653;28;20067;-75
2023/06/05 01:34:20;;;;;;;26.95;19.55;;;22.00;99.90;;;;;;5092443;28;20063;-74
2023/06/05 01:37:26;;;;;;;29.13;20.95;;;22.00;99.90;;;;;;5068530;28;20059;-75
2023/06/05 01:40:32;;;;;;;26.52;20.40;;;22.00;99.90;;;;;;5068311;28;20400;-75
2023/06/05 01:43:37;;;;;;;26.52;20.40;;;22.00;99.90;;;;;;5079997;28;20399;-75
2023/06/05 01:46:42;;;;;;;28.52;21.55;;;21.90;99.90;;;;;;5079715;28;20384;-75
2023/06/05 01:49:46;;;;;;;23.45;20.90;;;21.90;99.90;;;;;;5090650;28;20150;-75
2023/06/05 01:52:52;;;;;;;28.52;22.00;;;21.90;99.90;;;;;;5092309;28;20399;-75
2023/06/05 01:55:59;;;;;;;27.73;21.42;;;21.80;99.90;;;;;;5079467;28;20130;-75
2023/06/05 01:59:07;;;;;;;25.92;22.00;;;21.90;99.90;;;;;;5079431;28;20320;-75
2023/06/05 02:02:11;;;;;;;28.10;20.55;;;21.90;99.90;;;;;;5079343;28;20625;-75
2023/06/05 02:05:17;;;;;;;27.63;22.48;;;22.00;99.90;;;;;;5091985;28;20067;-75
2023/06/05 02:08:22;;;;;;;24.25;21.33;;;21.90;99.90;;;;;;5067298;28;20047;-74
2023/06/05 02:11:26;;;;;;;24.67;21.52;;;21.90;99.90;;;;;;5079380;28;20514;-75
2023/06/05 02:14:31;;;;;;;28.02;21.92;;;21.80;99.90;;;;;;5091709;28;20054;-75
2023/06/05 02:17:36;;;;;;;26.38;21.33;;;21.80;99.90;;;;;;5067866;28;20047;-74
2023/06/05 02:20:41;;;;;;;28.65;21.70;;;21.80;99.90;;;;;;5079102;28;20503;-74
2023/06/05 02:23:49;;;;;;;28.60;21.55;;;21.90;99.90;;;;;;5091547;28;20047;-75
2023/06/05 02:26:53;;;;;;;25.85;21.42;;;21.90;99.90;;;;;;5079097;28;20043;-75
2023/06/05 02:29:57;;;;;;;28.27;24.48;;;21.80;99.90;;;;;;5091483;28;20043;-75
2023/06/05 02:33:01;;;;;;;28.80;23.85;;;21.50;99.90;;;;;;5078969;28;20059;-74
2023/06/05 02:36:06;;;;;;;33.95;23.60;;;21.40;99.90;;;;;;5078870;28;20051;-74
2023/06/05 02:39:10;;;;;;;26.92;22.08;;;21.40;99.90;;;;;;5079134;28;20502;-75
2023/06/05 02:42:15;;;;;;;26.92;21.77;;;21.50;99.90;;;;;;5079155;28;20531;-74
2023/06/05 02:45:19;;;;;;;32.08;23.20;;;21.50;99.90;;;;;;5091741;28;20043;-74
2023/06/05 02:48:23;;;;;;;26.45;22.27;;;21.60;99.90;;;;;;5079193;28;20051;-74
2023/06/05 02:51:29;;;;;;;29.67;23.05;;;21.50;99.90;;;;;;5090459;28;20043;-75
2023/06/05 02:54:34;;;;;;;31.55;23.35;;;21.50;99.90;;;;;;5067639;28;20483;-74
2023/06/05 02:57:42;;;;;;;31.58;23.75;;;21.60;99.90;;;;;;5078655;28;20043;-74
2023/06/05 03:00:50;;;;;;;30.85;23.75;;;21.50;99.90;;;;;;5078854;28;20540;-75
2023/06/05 03:03:56;;;;;;;27.13;22.55;;;21.50;99.90;;;;;;5078811;28;20046;-75
2023/06/05 03:07:03;;;;;;;27.30;22.35;;;21.50;99.90;;;;;;5078447;28;20055;-74
2023/06/05 03:10:09;;;;;;;29.90;23.85;;;21.50;99.90;;;;;;5078359;28;20539;-74
2023/06/05 03:13:14;;;;;;;31.75;23.30;;;21.40;99.90;;;;;;5078713;28;20043;-74
2023/06/05 03:16:18;;;;;;;26.83;22.38;;;21.40;99.90;;;;;;5078358;28;20039;-74
2023/06/05 03:19:27;;;;;;;26.08;21.50;;;21.50;99.90;;;;;;5078349;28;20098;-75
2023/06/05 03:22:34;;;;;;;27.17;22.02;;;21.50;99.90;;;;;;5078609;28;20043;-75
2023/06/05 03:25:38;;;;;;;30.02;22.65;;;21.30;99.90;;;;;;5066845;28;20045;-74
2023/06/05 03:28:44;;;;;;;28.45;22.90;;;21.30;99.90;;;;;;5067048;28;20526;-74
2023/06/05 03:31:49;;;;;;;33.92;24.55;;;21.20;99.90;;;;;;5078488;28;20035;-75
2023/06/05 03:34:53;;;;;;;32.67;24.80;;;21.20;99.90;;;;;;5091122;28;20412;-76
2023/06/05 03:37:58;;;;;;;32.50;24.83;;;21.10;99.90;;;;;;5078352;28;20059;-74
2023/06/05 03:41:02;;;;;;;33.70;25.85;;;21.00;99.90;;;;;;5090882;28;20043;-75
2023/06/05 03:44:08;;;;;;;34.70;27.80;;;20.90;99.90;;;;;;5066928;28;20051;-74
2023/06/05 03:47:14;;;;;;;36.08;27.17;;;20.80;99.90;;;;;;5078452;28;20039;-75
2023/06/05 03:50:19;;;;;;;35.58;26.33;;;20.80;99.90;;;;;;5089883;28;20044;-75
2023/06/05 03:53:23;;;;;;;37.15;26.65;;;20.90;99.90;;;;;;5078354;28;20395;-75
2023/06/05 03:56:31;;;;;;;36.45;26.88;;;20.90;99.90;;;;;;5090543;28;20055;-74
2023/06/05 03:59:35;;;;;;;31.25;25.75;;;21.00;99.90;;;;;;5090431;28;20035;-74
2023/06/05 04:02:39;;;;;;;37.63;27.15;;;21.00;99.90;;;;;;5078076;28;20043;-74
2023/06/05 04:05:43;;;;;;;33.72;27.55;;;21.10;99.90;;;;;;5078263;28;20392;-74
2023/06/05 04:08:48;;;;;;;36.30;28.25;;;21.10;99.90;;;;;;5077963;28;20055;-74
2023/06/05 04:11:53;;;;;;;38.75;28.60;;;21.00;99.90;;;;;;5078842;28;20047;-73
2023/06/05 04:14:59;;;;;;;39.00;28.02;;;21.10;99.90;;;;;;5081583;28;20526;-76
2023/06/05 04:18:03;;;;;;;32.63;25.40;;;21.20;99.90;;;;;;5081568;28;20043;-76
2023/06/05 04:21:13;;;;;;;35.28;27.42;;;21.30;99.90;;;;;;5081693;28;20047;-75
2023/06/05 04:24:17;;;;;;;37.80;27.35;;;21.30;99.90;;;;;;5094092;28;20494;-76
2023/06/05 04:27:21;;;;;;;38.05;26.73;;;21.40;99.90;;;;;;5094291;28;20051;-75
2023/06/05 04:30:25;;;;;;;32.45;26.38;;;21.40;99.90;;;;;;5081457;28;20047;-74
2023/06/05 04:33:29;;;;;;;32.70;25.40;;;21.40;99.90;;;;;;5092631;28;20039;-75
2023/06/05 04:36:37;;;;;;;35.22;25.52;;;21.40;99.90;;;;;;5081365;28;20359;-75
2023/06/05 04:39:43;;;;;;;34.25;25.13;;;21.40;99.90;;;;;;5080964;28;20538;-74
2023/06/05 04:42:48;;;;;;;29.13;24.45;;;21.30;99.90;;;;;;5081288;28;20047;-74
2023/06/05 04:45:55;;;;;;;32.50;25.90;;;21.30;99.90;;;;;;5092775;28;20051;-74
2023/06/05 04:49:03;;;;;;;30.40;24.20;;;21.30;99.90;;;;;;5093751;28;20047;-74
2023/06/05 04:52:07;;;;;;;31.85;24.83;;;21.20;99.90;;;;;;5093577;28;20047;-74
2023/06/05 04:55:11;;;;;;;32.83;24.15;;;21.20;99.90;;;;;;5069551;28;20055;-74
2023/06/05 04:58:16;;;;;;;29.92;20.83;;;21.20;99.90;;;;;;5080741;28;20400;-74
2023/06/05 05:01:20;;;;;;;25.85;21.05;;;21.30;99.90;;;;;;5093441;28;20039;-75
2023/06/05 05:04:25;;;;;;;27.45;20.70;;;21.20;99.90;;;;;;5069492;28;20043;-75
2023/06/05 05:07:31;;;;;;;23.92;18.27;;;21.30;99.90;;;;;;5080444;28;20055;-76
2023/06/05 05:10:37;;;;;;;25.02;19.25;;;21.10;99.90;;;;;;5080653;28;20149;-77
2023/06/05 05:13:42;;;;;;;25.00;16.13;;;21.10;99.90;;;;;;5085110;28;20047;-78
2023/06/05 05:16:47;;;;;;;21.75;14.80;;;21.10;99.90;;;;;;5069188;28;20229;-75
2023/06/05 05:19:51;;;;;;;18.63;14.60;;;21.00;99.90;;;;;;5080144;28;20043;-74
2023/06/05 05:22:58;;;;;;;16.75;13.68;;;21.00;99.90;;;;;;5079901;28;20047;-74
2023/06/05 05:26:03;;;;;;;19.70;13.75;;;21.00;99.90;;;;;;5092431;28;20194;-75
2023/06/05 05:29:11;;;;;;;23.92;16.30;;;21.10;99.90;;;;;;5080760;28;20055;-75
2023/06/05 05:32:15;;;;;;;22.70;15.90;;;21.20;99.90;;;;;;5092868;28;20615;-75
2023/06/05 05:35:19;;;;;;;26.88;16.15;;;21.10;99.90;;;;;;5079987;28;20055;-76
2023/06/05 05:38:26;;;;;;;21.58;16.27;;;21.00;99.90;;;;;;5080203;28;20507;-75
2023/06/05 05:41:30;;;;;;;23.92;16.50;;;20.90;99.90;;;;;;5092496;28;20471;-74
2023/06/05 05:44:35;;;;;;;24.02;16.73;;;21.00;99.90;;;;;;5080296;28;20494;-75
2023/06/05 05:47:40;;;;;;;22.98;16.88;;;21.00;99.90;;;;;;5080656;28;20047;-76
2023/06/05 05:50:45;;;;;;;22.90;17.60;;;21.00;99.90;;;;;;5080722;28;20039;-76
2023/06/05 05:53:49;;;;;;;28.23;17.83;;;21.00;99.90;;;;;;5092911;28;20047;-76
2023/06/05 05:56:59;;;;;;;26.10;18.60;;;21.10;99.90;;;;;;5092801;28;20062;-76
2023/06/05 06:00:09;;;;;;;28.30;20.15;;;21.10;99.90;;;;;;5080008;28;20051;-75
2023/06/05 06:03:17;;;;;;;26.90;18.98;;;21.10;99.90;;;;;;5080236;28;20142;-75
2023/06/05 06:06:21;;;;;;;25.40;18.83;;;21.10;99.90;;;;;;5092290;28;20039;-74
2023/06/05 06:09:25;;;;;;;30.85;20.50;;;21.00;99.90;;;;;;5093184;28;20039;-75
2023/06/05 06:12:29;;;;;;;26.67;20.20;;;21.10;99.90;;;;;;5057989;28;20039;-71
2023/06/05 06:15:33;;;;;;;29.25;20.67;;;21.10;99.90;;;;;;5092315;28;20051;-78
2023/06/05 06:18:37;;;;;;;32.25;21.13;;;21.10;99.90;;;;;;5081465;28;20070;-82
2023/06/05 06:21:41;;;;;;;30.20;21.67;;;21.20;99.90;;;;;;5079954;28;20058;-80
2023/06/05 06:24:45;;;;;;;29.05;21.88;;;21.20;99.90;;;;;;5092558;28;20042;-78
2023/06/05 06:27:49;;;;;;;35.83;22.67;;;21.20;99.90;;;;;;5092624;28;20506;-75
2023/06/05 06:30:54;;;;;;;38.83;22.60;;;21.20;99.90;;;;;;5092075;28;20043;-72
2023/06/05 06:33:59;;;;;;;32.35;22.58;;;21.20;99.90;;;;;;5091637;28;20391;-73
2023/06/05 06:37:04;;;;;;;33.58;21.33;;;21.30;99.90;;;;;;5091478;28;20047;-74
2023/06/05 06:40:09;;;;;;;27.45;20.75;;;21.30;99.90;;;;;;5091924;28;20039;-75
2023/06/05 06:43:13;;;;;;;33.22;21.00;;;21.40;99.90;;;;;;5079383;28;20043;-78
2023/06/05 06:46:22;;;;;;;28.00;18.92;;;21.40;99.90;;;;;;5078675;28;20063;-68
2023/06/05 06:49:27;;;;;;;29.45;21.52;;;21.40;99.90;;;;;;5090872;28;20058;-71
2023/06/05 06:52:31;;;;;;;27.92;20.55;;;21.40;99.90;;;;;;5091189;28;20043;-71
2023/06/05 06:55:35;;;;;;;30.33;19.50;;;21.30;99.90;;;;;;5090895;28;20051;-74
2023/06/05 06:58:39;;;;;;;33.55;24.70;;;21.30;99.90;;;;;;5078505;28;20402;-71
2023/06/05 07:01:48;;;;;;;62.22;43.03;;;21.30;99.90;;;;;;5091035;28;20047;-72
2023/06/05 07:04:54;;;;;;;60.55;42.13;;;21.30;99.90;;;;;;5078766;28;20047;-75
2023/06/05 07:08:00;;;;;;;46.08;29.27;;;21.30;99.90;;;;;;5079082;28;20051;-72
2023/06/05 07:11:04;;;;;;;30.42;19.55;;;21.30;99.90;;;;;;5078919;28;20051;-78
2023/06/05 07:14:08;;;;;;;37.55;17.40;;;21.40;99.90;;;;;;5091408;28;20051;-71
2023/06/05 07:17:15;;;;;;;26.75;17.33;;;21.40;99.90;;;;;;5079505;28;20051;-73
2023/06/05 07:20:19;;;;;;;27.17;18.10;;;21.50;99.90;;;;;;5091047;28;20047;-71
2023/06/05 07:23:23;;;;;;;40.17;18.98;;;21.50;99.90;;;;;;5091482;28;20047;-74
2023/06/05 07:26:27;;;;;;;30.52;17.63;;;21.60;99.90;;;;;;5091434;28;20067;-74
2023/06/05 07:29:32;;;;;;;34.80;19.05;;;21.60;99.90;;;;;;5090923;28;20051;-73
2023/06/05 07:32:36;;;;;;;20.55;13.77;;;21.70;99.90;;;;;;5091261;28;20047;-74
2023/06/05 07:35:40;;;;;;;22.75;13.48;;;21.70;99.90;;;;;;5067018;28;20669;-74
2023/06/05 07:38:44;;;;;;;21.17;14.95;;;21.80;99.90;;;;;;5078443;28;20051;-74
2023/06/05 07:41:49;;;;;;;20.65;12.25;;;21.90;99.90;;;;;;5090685;28;20599;-73
2023/06/05 07:44:54;;;;;;;16.90;10.68;;;22.10;99.90;;;;;;5091966;28;20149;-73
2023/06/05 07:48:02;;;;;;;19.02;9.75;;;22.30;99.90;;;;;;5081447;28;20046;-73
2023/06/05 07:51:08;;;;;;;15.55;6.93;;;22.30;99.90;;;;;;5095083;28;20043;-72
2023/06/05 07:54:15;;;;;;;11.85;6.25;;;22.50;99.90;;;;;;5082286;28;20040;-71
2023/06/05 07:57:25;;;;;;;13.60;6.00;;;22.60;99.90;;;;;;5094575;28;20047;-76
2023/06/05 08:00:30;;;;;;;11.18;4.93;;;22.80;99.90;;;;;;5081128;28;20043;-71
2023/06/05 08:03:41;;;;;;;9.07;4.35;;;22.90;98.40;;;;;;5094273;28;20035;-74
2023/06/05 08:06:46;;;;;;;11.98;4.22;;;22.80;96.60;;;;;;5094921;28;20230;-74
2023/06/05 08:09:50;;;;;;;8.35;4.15;;;22.80;96.60;;;;;;5095491;28;20526;-77
2023/06/05 08:12:57;;;;;;;10.07;4.80;;;22.80;97.10;;;;;;5094914;28;20039;-74
2023/06/05 08:16:03;;;;;;;11.77;5.03;;;22.80;96.70;;;;;;5094522;28;20048;-72
2023/06/05 08:19:06;;;;;;;8.50;3.95;;;22.80;96.10;;;;;;5094905;28;20416;-76
2023/06/05 08:22:12;;;;;;;7.15;3.75;;;22.90;95.80;;;;;;5094738;28;20074;-79
2023/06/05 08:25:16;;;;;;;8.02;3.92;;;22.90;94.90;;;;;;5086232;28;20035;-80
2023/06/05 08:28:20;;;;;;;6.60;3.75;;;22.90;95.00;;;;;;5097193;28;20047;-82
2023/06/05 08:31:24;;;;;;;8.77;3.63;;;23.00;95.60;;;;;;5100058;28;20399;-81
2023/06/05 08:34:27;;;;;;;11.13;3.70;;;22.90;94.80;;;;;;5082322;28;20050;-73
2023/06/05 08:37:31;;;;;;;7.53;3.33;;;23.00;94.90;;;;;;5083012;28;20407;-78
2023/06/05 08:40:38;;;;;;;6.82;2.92;;;23.10;95.00;;;;;;5095852;28;20047;-76
2023/06/05 08:43:52;;;;;;;7.75;3.33;;;23.20;94.70;;;;;;5093681;28;20054;-72
2023/06/05 08:47:01;;;;;;;11.15;3.35;;;23.30;94.60;;;;;;5093928;28;20047;-72
2023/06/05 08:50:06;;;;;;;9.85;4.50;;;23.40;94.30;;;;;;5096752;28;20106;-76
2023/06/05 08:53:12;;;;;;;12.57;4.30;;;23.50;95.00;;;;;;5095386;28;20046;-80
2023/06/05 08:56:17;;;;;;;8.32;3.40;;;23.50;95.80;;;;;;5094210;28;20158;-74
2023/06/05 08:59:24;;;;;;;5.88;3.75;;;23.60;94.50;;;;;;5092888;28;20035;-74
2023/06/05 09:02:28;;;;;;;8.23;3.75;;;23.70;94.30;;;;;;5093270;28;20039;-72
2023/06/05 09:05:33;;;;;;;7.25;3.38;;;23.80;94.40;;;;;;5096432;28;20084;-77
2023/06/05 09:08:38;;;;;;;9.10;3.75;;;23.90;94.90;;;;;;5095882;28;20313;-78
2023/06/05 09:11:42;;;;;;;10.13;3.95;;;24.10;94.90;;;;;;5095872;28;20380;-82
2023/06/05 09:14:46;;;;;;;10.30;3.83;;;24.10;94.00;;;;;;5097416;28;20043;-79
2023/06/05 09:18:11;;;;;;;6.25;3.30;;;24.20;93.80;;;;;;5083665;28;20122;-78
2023/06/05 09:21:15;;;;;;;6.20;3.58;;;24.20;93.40;;;;;;5081037;28;20058;-83
2023/06/05 09:24:24;;;;;;;5.65;3.05;;;24.30;93.10;;;;;;5094195;28;20107;-79
2023/06/05 09:27:28;;;;;;;7.72;3.42;;;24.40;93.10;;;;;;5082844;28;20042;-81
2023/06/05 09:30:32;;;;;;;7.97;3.95;;;24.50;93.00;;;;;;5080427;28;20039;-72
2023/06/05 09:33:37;;;;;;;7.85;3.30;;;24.50;93.10;;;;;;5080554;28;20051;-73
2023/06/05 09:36:47;;;;;;;8.77;4.00;;;24.60;92.50;;;;;;5080906;28;20062;-80
2023/06/05 09:39:52;;;;;;;8.60;3.90;;;24.50;92.30;;;;;;5094659;28;20039;-78
2023/06/05 09:42:56;;;;;;;9.32;3.90;;;24.60;92.60;;;;;;5094511;28;20046;-81
2023/06/05 09:46:13;;;;;;;6.72;3.40;;;24.60;92.50;;;;;;5096758;28;20039;-81
2023/06/05 09:49:16;;;;;;;5.32;3.45;;;24.70;92.60;;;;;;5092476;28;20035;-74
2023/06/05 09:52:20;;;;;;;10.73;3.67;;;24.70;92.10;;;;;;5092537;28;20043;-78
2023/06/05 09:55:29;;;;;;;16.80;5.43;;;24.70;92.60;;;;;;5080242;28;20059;-78
2023/06/05 09:58:38;;;;;;;11.55;4.30;;;24.80;92.90;;;;;;5078776;28;20055;-78
2023/06/05 10:01:43;;;;;;;10.60;5.00;;;24.80;92.60;;;;;;5092563;28;20605;-78
2023/06/05 10:04:51;;;;;;;8.82;5.10;;;24.80;92.50;;;;;;5080520;28;20055;-78
2023/06/05 10:07:56;;;;;;;10.38;5.18;;;24.80;92.40;;;;;;5092167;28;20055;-78
2023/06/05 10:11:01;;;;;;;16.02;5.47;;;24.90;92.60;;;;;;5079915;28;20043;-78
2023/06/05 10:14:06;;;;;;;11.13;4.53;;;24.90;92.70;;;;;;5079956;28;20055;-78
2023/06/05 10:17:12;;;;;;;12.82;5.00;;;24.90;92.40;;;;;;5068200;28;20511;-78
2023/06/05 10:20:16;;;;;;;6.90;4.78;;;24.80;92.50;;;;;;5067562;28;20043;-78
2023/06/05 10:23:24;;;;;;;13.05;4.75;;;24.80;92.30;;;;;;5092364;28;20047;-79
2023/06/05 10:26:37;;;;;;;12.88;4.63;;;24.90;92.30;;;;;;5092277;28;20506;-78
2023/06/05 10:29:50;;;;;;;11.00;4.07;;;25.10;92.20;;;;;;5080094;28;20047;-78
2023/06/05 10:33:01;;;;;;;6.28;3.45;;;25.20;91.40;;;;;;5094193;28;20042;-75
2023/06/05 10:36:05;;;;;;;;;;;25.40;90.50;;;;;;5079698;28;20059;-78
2023/06/05 10:39:11;;;;;;;5.95;3.10;;;25.50;90.50;;;;;;5091396;28;19908;-79
2023/06/05 10:42:29;;;;;;;10.73;3.53;;;25.50;90.20;;;;;;5080727;28;20059;-80
2023/06/05 10:45:33;;;;;;;7.28;3.17;;;25.50;90.20;;;;;;5092616;28;20043;-79
2023/06/05 10:49:17;;;;;;;5.03;3.22;;;25.50;89.50;;;;;;5092668;28;20050;-80
2023/06/05 10:52:39;;;;;;;8.52;3.00;;;25.50;89.70;;;;;;5080233;28;20411;-78
2023/06/05 10:55:43;;;;;;;5.32;3.15;;;25.50;89.10;;;;;;5093146;28;20047;-80
2023/06/05 10:59:15;;;;;;;5.70;3.25;;;25.50;89.10;;;;;;5091851;28;20055;-78
2023/06/05 11:02:20;;;;;;;8.25;5.22;;;25.60;88.90;;;;;;5079389;28;20050;-77
2023/06/05 11:05:26;;;;;;;8.27;3.45;;;25.60;88.70;;;;;;5092615;28;20047;-77
2023/06/05 11:08:33;;;;;;;5.15;2.90;;;25.50;87.50;;;;;;5079830;28;20063;-78
2023/06/05 11:12:00;;;;;;;6.82;4.13;;;25.50;87.40;;;;;;5092939;28;20039;-79
2023/06/05 11:15:05;;;;;;;8.32;3.40;;;25.50;87.80;;;;;;5080176;28;20049;-79
2023/06/05 11:18:33;;;;;;;7.90;3.20;;;25.50;88.10;;;;;;5093068;28;20043;-77
2023/06/05 11:22:09;;;;;;;9.63;4.05;;;25.50;88.30;;;;;;5093547;28;20619;-81
2023/06/05 11:25:16;;;;;;;7.53;4.43;;;25.60;89.80;;;;;;5096070;28;20047;-80
2023/06/05 11:28:47;;;;;;;13.80;6.97;;;25.60;89.30;;;;;;5083251;28;20106;-79
2023/06/05 11:31:52;;;;;;;6.05;4.10;;;25.60;89.20;;;;;;5095614;28;20051;-80
2023/06/05 11:34:58;;;;;;;9.35;4.15;;;25.60;89.50;;;;;;5095980;28;20106;-78
2023/06/05 11:38:13;;;;;;;6.38;3.47;;;25.60;89.70;;;;;;5095410;28;20059;-79
2023/06/05 11:41:17;;;;;;;8.23;4.53;;;25.60;89.70;;;;;;5096346;28;20039;-78
2023/06/05 11:44:33;;;;;;;8.15;4.22;;;25.70;90.00;;;;;;5096894;28;20039;-79
2023/06/05 11:47:37;;;;;;;8.38;3.88;;;25.60;90.00;;;;;;5096007;28;20079;-78
2023/06/05 11:51:01;;;;;;;5.82;3.85;;;25.60;90.10;;;;;;5095472;28;20051;-79
2023/06/05 11:54:07;;;;;;;8.23;3.78;;;25.60;90.20;;;;;;5094927;28;20047;-79
2023/06/05 11:57:13;;;;;;;17.35;6.22;;;25.60;90.60;;;;;;5095297;28;20051;-79
2023/06/05 12:00:23;;;;;;;12.40;5.20;;;25.60;90.90;;;;;;5095347;28;20051;-79
2023/06/05 12:03:28;;;;;;;14.93;5.45;;;25.60;91.00;;;;;;5083217;28;20066;-80
2023/06/05 12:06:34;;;;;;;10.00;5.20;;;25.50;91.20;;;;;;5094838;28;20043;-78
2023/06/05 12:09:38;;;;;;;10.10;5.32;;;25.50;91.40;;;;;;5095420;28;20522;-78
2023/06/05 12:12:52;;;;;;;13.82;6.13;;;25.50;91.00;;;;;;5094834;28;20498;-81
2023/06/05 12:16:00;;;;;;;9.25;5.03;;;25.50;91.20;;;;;;5099743;28;20051;-79
2023/06/05 12:19:17;;;;;;;13.40;5.45;;;25.50;91.50;;;;;;5098876;28;20055;-81
2023/06/05 12:22:22;;;;;;;8.18;5.15;;;25.60;91.70;;;;;;5094663;28;20039;-77
2023/06/05 12:25:26;;;;;;;10.65;4.88;;;25.40;91.40;;;;;;5084357;28;20043;-83
2023/06/05 12:28:31;;;;;;;9.27;4.95;;;25.20;90.80;;;;;;5095919;28;20067;-81
2023/06/05 12:31:39;;;;;;;10.55;4.95;;;25.10;91.70;;;;;;5094536;28;20039;-77
2023/06/05 12:34:51;;;;;;;12.07;4.47;;;25.10;91.70;;;;;;5095091;28;20498;-76
2023/06/05 12:38:00;;;;;;;10.40;5.20;;;25.00;91.40;;;;;;5082425;28;20059;-77
2023/06/05 12:41:07;;;;;;;9.20;4.95;;;25.00;91.60;;;;;;5082187;28;20055;-77
2023/06/05 12:44:11;;;;;;;10.30;5.25;;;25.00;92.00;;;;;;5093893;28;20043;-78
2023/06/05 12:47:16;;;;;;;7.85;5.18;;;25.10;91.50;;;;;;5094260;28;20043;-77
2023/06/05 12:50:21;;;;;;;11.27;5.75;;;25.10;91.20;;;;;;5093896;28;20047;-78
2023/06/05 12:53:25;;;;;;;11.80;5.95;;;25.00;91.80;;;;;;5098514;28;20044;-77
2023/06/05 12:56:30;;;;;;;11.13;6.35;;;25.10;91.50;;;;;;5096527;28;20051;-86
2023/06/05 12:59:35;;;;;;;11.95;6.40;;;25.10;91.60;;;;;;5081858;28;20047;-79
2023/06/05 13:02:47;;;;;;;10.35;5.80;;;25.10;91.30;;;;;;5093984;28;20043;-79
2023/06/05 13:05:51;;;;;;;6.70;4.82;;;25.20;91.60;;;;;;5093819;28;20043;-76
2023/06/05 13:08:55;;;;;;;8.23;4.75;;;25.20;91.70;;;;;;5094712;28;20043;-81
2023/06/05 13:11:59;;;;;;;8.05;4.25;;;25.30;90.80;;;;;;5094144;28;20067;-75
2023/06/05 13:15:06;;;;;;;8.57;4.45;;;25.30;89.70;;;;;;5080578;28;20040;-74
2023/06/05 13:18:11;;;;;;;5.18;4.03;;;25.40;89.20;;;;;;5092997;28;20044;-73
2023/06/05 13:21:16;;;;;;;6.22;3.92;;;25.50;90.00;;;;;;5068985;28;20387;-75
2023/06/05 13:24:21;;;;;;;10.10;4.90;;;25.60;90.20;;;;;;5093133;28;20045;-77
2023/06/05 13:27:25;;;;;;;11.65;6.25;;;25.60;89.90;;;;;;5094889;28;20215;-75
2023/06/05 13:30:29;;;;;;;9.48;5.93;;;25.70;89.50;;;;;;5092930;28;20043;-75
2023/06/05 13:33:33;;;;;;;6.60;4.40;;;25.70;89.10;;;;;;5080504;28;20523;-75
2023/06/05 13:36:38;;;;;;;7.18;4.00;;;25.70;88.70;;;;;;5092741;28;20071;-74
2023/06/05 13:39:42;;;;;;;5.88;3.83;;;25.70;88.10;;;;;;5092726;28;20063;-78
2023/06/05 13:42:47;;;;;;;9.27;4.90;;;25.80;88.30;;;;;;5096132;28;20055;-79
2023/06/05 13:45:51;;;;;;;8.20;4.43;;;25.80;89.30;;;;;;5092837;28;20063;-77
2023/06/05 13:48:59;;;;;;;8.35;4.90;;;25.80;89.00;;;;;;5094334;28;20055;-86
2023/06/05 13:52:04;;;;;;;11.25;6.10;;;25.80;88.60;;;;;;5093742;28;20039;-75
2023/06/05 13:55:08;;;;;;;5.70;3.95;;;25.80;87.90;;;;;;5093497;28;20051;-81
2023/06/05 13:58:12;;;;;;;7.10;3.85;;;25.80;87.40;;;;;;5080095;28;20047;-74
2023/06/05 14:01:16;;;;;;;11.38;4.30;;;25.80;87.40;;;;;;5092895;28;20042;-76
2023/06/05 14:04:20;;;;;;;7.57;4.25;;;25.80;87.20;;;;;;5092823;28;20055;-78
2023/06/05 14:07:24;;;;;;;11.30;4.30;;;25.80;87.10;;;;;;5079935;28;20423;-77
2023/06/05 14:10:29;;;;;;;11.95;4.40;;;25.80;86.20;;;;;;5091825;28;20044;-75
2023/06/05 14:13:33;;;;;;;9.40;4.53;;;25.80;86.20;;;;;;5091909;28;20427;-70
2023/06/05 14:16:37;;;;;;;5.78;4.18;;;25.80;86.10;;;;;;5092016;28;20510;-75
2023/06/05 14:19:41;;;;;;;6.88;4.03;;;25.70;85.70;;;;;;5078953;28;20039;-75
2023/06/05 14:22:46;;;;;;;11.68;5.07;;;25.80;85.60;;;;;;5091870;28;20047;-74
2023/06/05 14:25:50;;;;;;;5.55;4.00;;;25.80;85.40;;;;;;5079053;28;20039;-74
2023/06/05 14:28:54;;;;;;;5.57;4.28;;;25.70;85.70;;;;;;5091969;28;20033;-73
2023/06/05 14:31:58;;;;;;;9.02;4.60;;;25.80;86.40;;;;;;5091423;28;20051;-73
2023/06/05 14:35:02;;;;;;;6.47;4.40;;;25.80;86.30;;;;;;5079163;28;20044;-74
2023/06/05 14:38:06;;;;;;;8.00;4.75;;;25.70;86.20;;;;;;5091139;28;20051;-74
2023/06/05 14:41:11;;;;;;;7.60;3.95;;;25.70;86.40;;;;;;5079040;28;20051;-74
2023/06/05 14:44:14;;;;;;;10.18;4.78;;;25.70;86.90;;;;;;5091401;28;20046;-72
2023/06/05 14:47:18;;;;;;;8.45;4.57;;;25.70;87.60;;;;;;5067513;28;20044;-73
2023/06/05 14:50:23;;;;;;;7.63;3.75;;;25.60;87.10;;;;;;5091279;28;20399;-71
2023/06/05 14:53:27;;;;;;;11.15;4.85;;;25.60;87.20;;;;;;5091403;28;20636;-72
2023/06/05 14:56:32;;;;;;;8.45;4.30;;;25.60;87.50;;;;;;5078584;28;20058;-71
2023/06/05 14:59:36;;;;;;;7.90;6.65;;;25.60;87.50;;;;;;5091110;28;20660;-73
2023/06/05 15:02:40;;;;;;;10.95;5.05;;;25.60;87.40;;;;;;5091524;28;20051;-73
2023/06/05 15:05:49;;;;;;;15.18;5.57;;;25.60;87.50;;;;;;5093348;28;20054;-88
2023/06/05 15:08:53;;;;;;;9.05;4.63;;;25.60;87.90;;;;;;5072867;28;20511;-83
2023/06/05 15:11:59;;;;;;;8.30;5.30;;;25.60;88.20;;;;;;5095706;28;20199;-85
2023/06/05 15:15:07;;;;;;;7.07;4.50;;;25.60;88.70;;;;;;5096820;28;20047;-84
2023/06/05 15:18:11;;;;;;;9.30;4.32;;;25.60;89.00;;;;;;5093834;28;20055;-80
2023/06/05 15:21:15;;;;;;;8.00;5.10;;;25.60;88.80;;;;;;5098249;28;20388;-89
2023/06/05 15:24:19;;;;;;;8.55;3.85;;;25.60;88.80;;;;;;5097362;28;20059;-80
2023/06/05 15:27:23;;;;;;;7.45;4.32;;;25.60;88.50;;;;;;5093732;28;20067;-73
2023/06/05 15:30:27;;;;;;;8.80;4.63;;;25.60;88.40;;;;;;5078958;28;20047;-78
2023/06/05 15:33:31;;;;;;;15.02;5.35;;;25.60;88.20;;;;;;5091976;28;20055;-80
2023/06/05 15:36:35;;;;;;;7.55;4.20;;;25.60;87.70;;;;;;5078335;28;20510;-73
2023/06/05 15:39:41;;;;;;;10.65;4.68;;;25.60;88.30;;;;;;5091115;28;20043;-73
2023/06/05 15:43:03;;;;;;;9.60;4.45;;;25.60;88.10;;;;;;5080222;28;20047;-74
2023/06/05 15:46:08;;;;;;;10.00;4.57;;;25.60;88.20;;;;;;5091990;28;20051;-77
2023/06/05 15:49:12;;;;;;;6.75;4.82;;;25.50;87.90;;;;;;5091334;28;20035;-77
2023/06/05 15:52:16;;;;;;;7.45;4.35;;;25.60;88.20;;;;;;5091484;28;20050;-75
2023/06/05 15:55:20;;;;;;;7.30;3.90;;;25.60;88.80;;;;;;5078918;28;20039;-76